createdAt,value
2022-12-16T00:00:30.214Z,25.45
2022-12-16T00:03:00.217Z,25.70
2022-12-16T00:05:27.127Z,24.20
2022-12-16T00:07:53.761Z,25.55
2022-12-16T00:10:22.475Z,24.13
2022-12-16T00:12:49.146Z,26.17
2022-12-16T00:15:15.825Z,27.08
2022-12-16T00:17:42.803Z,25.83
2022-12-16T00:20:10.588Z,22.23
2022-12-16T00:22:40.239Z,23.73
2022-12-16T00:25:07.427Z,24.75
2022-12-16T00:27:34.489Z,23.90
2022-12-16T00:30:01.067Z,21.25
2022-12-16T00:32:27.648Z,24.52
2022-12-16T00:34:54.418Z,20.52
2022-12-16T00:37:21.548Z,19.95
2022-12-16T00:39:48.225Z,20.23
2022-12-16T00:42:14.854Z,20.75
2022-12-16T00:44:41.979Z,22.08
2022-12-16T00:47:08.796Z,20.73
2022-12-16T00:49:35.744Z,24.77
2022-12-16T00:52:02.427Z,25.02
2022-12-16T00:54:29.045Z,23.15
2022-12-16T00:56:56.297Z,23.23
2022-12-16T00:59:23.165Z,24.98
2022-12-16T01:01:49.915Z,20.55
2022-12-16T01:04:17.216Z,23.08
2022-12-16T01:06:43.899Z,24.20
2022-12-16T01:09:10.543Z,20.77
2022-12-16T01:11:37.269Z,23.65
2022-12-16T01:14:03.893Z,22.75
2022-12-16T01:16:30.494Z,21.75
2022-12-16T01:18:57.156Z,21.38
2022-12-16T01:21:23.764Z,23.27
2022-12-16T01:23:50.547Z,20.92
2022-12-16T01:26:17.524Z,22.40
2022-12-16T01:28:44.887Z,21.02
2022-12-16T01:31:12.496Z,22.98
2022-12-16T01:33:39.497Z,20.30
2022-12-16T01:36:06.989Z,20.30
2022-12-16T01:38:33.661Z,19.83
2022-12-16T01:41:00.335Z,19.88
2022-12-16T01:43:29.051Z,21.25
2022-12-16T01:46:08.089Z,20.67
2022-12-16T01:48:45.291Z,20.60
2022-12-16T01:51:34.166Z,21.02
2022-12-16T01:54:04.592Z,20.52
2022-12-16T01:56:31.709Z,20.67
2022-12-16T01:58:58.353Z,20.55
2022-12-16T02:01:25.160Z,20.77
2022-12-16T02:03:52.281Z,19.67
2022-12-16T02:06:19.063Z,18.63
2022-12-16T02:08:45.655Z,21.27
2022-12-16T02:11:22.897Z,19.50
2022-12-16T02:14:13.378Z,20.88
2022-12-16T02:16:54.975Z,19.63
2022-12-16T02:19:57.115Z,22.03
2022-12-16T02:25:36.314Z,21.67
2022-12-16T02:28:08.216Z,22.13
2022-12-16T02:31:04.575Z,22.45
2022-12-16T02:33:47.185Z,21.67
2022-12-16T02:36:53.658Z,23.75
2022-12-16T02:39:25.333Z,21.40
2022-12-16T02:41:57.494Z,23.60
2022-12-16T02:44:30.774Z,20.95
2022-12-16T02:46:57.366Z,22.13
2022-12-16T02:52:03.418Z,22.15
2022-12-16T02:54:30.000Z,24.83
2022-12-16T02:57:05.387Z,23.67
2022-12-16T03:00:01.777Z,23.17
2022-12-16T03:05:28.004Z,25.95
2022-12-16T03:07:55.113Z,24.15
2022-12-16T03:10:24.014Z,25.08
2022-12-16T03:12:50.661Z,24.58
2022-12-16T03:15:19.329Z,26.77
2022-12-16T03:17:46.738Z,25.27
2022-12-16T03:20:17.423Z,26.92
2022-12-16T03:22:44.949Z,27.85
2022-12-16T03:25:11.558Z,26.92
2022-12-16T03:27:57.230Z,28.33
2022-12-16T03:30:27.249Z,25.98
2022-12-16T03:33:12.016Z,26.65
2022-12-16T03:35:40.750Z,25.02
2022-12-16T03:38:08.326Z,27.67
2022-12-16T03:40:34.909Z,24.38
2022-12-16T03:43:01.684Z,26.88
2022-12-16T03:45:30.602Z,28.17
2022-12-16T03:47:57.701Z,26.05
2022-12-16T03:50:27.005Z,30.17
2022-12-16T03:52:53.697Z,26.08
2022-12-16T03:55:20.334Z,31.13
2022-12-16T03:57:46.928Z,28.13
2022-12-16T04:00:14.232Z,30.80
2022-12-16T04:02:41.164Z,31.65
2022-12-16T04:05:08.405Z,31.02
2022-12-16T04:07:35.050Z,30.48
2022-12-16T04:10:01.780Z,28.98
2022-12-16T04:12:48.333Z,34.20
2022-12-16T04:15:34.925Z,32.30
2022-12-16T04:18:21.566Z,32.92
2022-12-16T04:21:10.910Z,36.22
2022-12-16T04:23:58.213Z,35.58
2022-12-16T04:26:24.868Z,31.80
2022-12-16T04:28:51.453Z,31.83
2022-12-16T04:31:18.101Z,30.85
2022-12-16T04:34:04.772Z,34.90
2022-12-16T04:36:51.294Z,33.33
2022-12-16T04:39:37.806Z,41.97
2022-12-16T04:42:24.329Z,38.08
2022-12-16T04:45:10.882Z,39.50
2022-12-16T04:47:57.810Z,39.72
2022-12-16T04:50:44.621Z,37.97
2022-12-16T04:53:31.517Z,40.35
2022-12-16T04:56:18.273Z,37.55
2022-12-16T04:59:04.848Z,37.25
2022-12-16T05:01:51.519Z,31.95
2022-12-16T05:04:38.096Z,29.88
2022-12-16T05:07:24.669Z,34.38
2022-12-16T05:10:11.207Z,32.42
2022-12-16T05:12:57.749Z,36.60
2022-12-16T05:15:44.303Z,36.17
2022-12-16T05:18:33.019Z,31.98
2022-12-16T05:21:20.254Z,38.70
2022-12-16T05:24:07.340Z,39.83
2022-12-16T05:26:53.862Z,34.80
2022-12-16T05:29:40.417Z,37.88
2022-12-16T05:32:26.961Z,35.35
2022-12-16T05:35:13.452Z,41.90
2022-12-16T05:37:59.969Z,34.17
2022-12-16T05:40:46.503Z,38.20
2022-12-16T05:43:33.458Z,38.22
2022-12-16T05:46:20.530Z,35.90
2022-12-16T05:49:07.128Z,36.53
2022-12-16T05:51:53.669Z,40.58
2022-12-16T05:54:40.367Z,40.00
2022-12-16T05:57:26.914Z,40.28
2022-12-16T06:00:13.424Z,36.22
2022-12-16T06:03:00.150Z,35.88
2022-12-16T06:05:46.779Z,44.40
2022-12-16T06:08:33.329Z,39.17
2022-12-16T06:11:19.907Z,44.55
2022-12-16T06:14:06.449Z,48.35
2022-12-16T06:16:53.022Z,48.33
2022-12-16T06:19:39.581Z,43.75
2022-12-16T06:22:26.146Z,49.45
2022-12-16T06:25:12.727Z,50.50
2022-12-16T06:27:59.255Z,43.75
2022-12-16T06:30:45.846Z,43.83
2022-12-16T06:33:32.809Z,45.85
2022-12-16T06:36:19.727Z,46.05
2022-12-16T06:39:06.277Z,51.67
2022-12-16T06:41:52.822Z,46.60
2022-12-16T06:44:39.455Z,49.78
2022-12-16T06:47:26.095Z,48.88
2022-12-16T06:50:12.655Z,47.42
2022-12-16T06:53:00.685Z,46.60
2022-12-16T06:55:47.749Z,45.53
2022-12-16T06:58:34.396Z,46.55
2022-12-16T07:01:21.050Z,45.83
2022-12-16T07:04:07.627Z,45.22
2022-12-16T07:06:54.130Z,49.92
2022-12-16T07:09:40.693Z,47.17
2022-12-16T07:12:27.275Z,46.95
2022-12-16T07:15:13.818Z,44.78
2022-12-16T07:18:00.634Z,41.95
2022-12-16T07:20:47.280Z,40.15
2022-12-16T07:23:34.090Z,40.53
2022-12-16T07:26:20.880Z,39.35
2022-12-16T07:29:07.449Z,43.78
2022-12-16T07:31:54.355Z,46.08
2022-12-16T07:34:44.740Z,48.15
2022-12-16T07:40:22.798Z,47.92
2022-12-16T07:43:09.348Z,47.97
2022-12-16T07:45:55.956Z,41.20
2022-12-16T07:48:42.553Z,44.42
2022-12-16T07:51:29.155Z,45.03
2022-12-16T07:54:15.745Z,46.75
2022-12-16T07:57:02.269Z,45.20
2022-12-16T07:59:48.787Z,45.60
2022-12-16T08:02:35.552Z,47.55
2022-12-16T08:05:22.243Z,47.53
2022-12-16T08:08:08.866Z,47.10
2022-12-16T08:10:55.483Z,40.05
2022-12-16T08:13:42.035Z,46.67
2022-12-16T08:16:28.609Z,44.45
2022-12-16T08:19:15.162Z,43.65
2022-12-16T08:22:01.761Z,53.75
2022-12-16T08:24:53.287Z,42.65
2022-12-16T08:27:40.445Z,47.77
2022-12-16T08:30:27.719Z,51.88
2022-12-16T08:33:19.350Z,53.92
2022-12-16T08:36:09.722Z,49.17
2022-12-16T08:38:56.296Z,50.42
2022-12-16T08:41:42.839Z,49.15
2022-12-16T08:44:29.419Z,49.58
2022-12-16T08:47:16.028Z,45.22
2022-12-16T08:50:02.892Z,44.67
2022-12-16T08:52:49.953Z,48.30
2022-12-16T08:55:36.664Z,46.10
2022-12-16T08:58:23.242Z,41.95
2022-12-16T09:01:09.938Z,45.80
2022-12-16T09:03:56.893Z,42.20
2022-12-16T09:06:43.561Z,39.00
2022-12-16T09:09:30.213Z,40.42
2022-12-16T09:12:16.856Z,41.53
2022-12-16T09:15:03.398Z,39.40
2022-12-16T09:17:49.924Z,41.63
2022-12-16T09:20:36.551Z,40.33
2022-12-16T09:26:27.064Z,32.97
2022-12-16T09:29:13.683Z,38.00
2022-12-16T09:32:00.212Z,38.10
2022-12-16T09:34:46.716Z,39.55
2022-12-16T09:37:33.267Z,41.35
2022-12-16T09:40:19.841Z,40.92
2022-12-16T09:43:41.189Z,37.90
2022-12-16T09:46:42.031Z,39.72
2022-12-16T09:49:53.934Z,41.97
2022-12-16T09:52:41.049Z,41.93
2022-12-16T09:55:46.648Z,43.42
2022-12-16T09:58:33.186Z,41.35
2022-12-16T10:01:19.773Z,38.55
2022-12-16T10:04:06.558Z,38.28
2022-12-16T10:07:16.090Z,39.75
2022-12-16T10:10:35.447Z,40.60
2022-12-16T10:13:48.662Z,39.20
2022-12-16T10:19:50.889Z,39.55
2022-12-16T10:23:02.325Z,42.45
2022-12-16T10:25:52.606Z,41.25
2022-12-16T10:28:44.893Z,41.33
2022-12-16T10:31:33.832Z,42.70
2022-12-16T10:34:20.503Z,38.67
2022-12-16T10:37:11.185Z,47.72
2022-12-16T10:39:59.638Z,49.33
2022-12-16T10:42:50.997Z,40.63
2022-12-16T10:45:55.681Z,47.88
2022-12-16T10:48:56.262Z,48.00
2022-12-16T10:51:44.441Z,51.40
2022-12-16T10:57:24.671Z,51.75
2022-12-16T11:00:11.287Z,46.70
2022-12-16T11:02:57.961Z,56.13
2022-12-16T11:08:22.957Z,55.53
2022-12-16T11:11:09.503Z,53.15
2022-12-16T11:13:56.425Z,54.60
2022-12-16T11:16:44.623Z,54.05
2022-12-16T11:19:39.724Z,50.45
2022-12-16T11:22:27.819Z,49.42
2022-12-16T11:25:39.098Z,53.22
2022-12-16T11:28:29.363Z,53.78
2022-12-16T11:31:17.368Z,46.15
2022-12-16T11:34:04.258Z,51.03
2022-12-16T11:36:52.070Z,56.38
2022-12-16T11:39:43.322Z,55.10
2022-12-16T11:42:39.490Z,60.10
2022-12-16T11:45:26.434Z,51.15
2022-12-16T11:48:14.921Z,54.50
2022-12-16T11:51:07.600Z,54.13
2022-12-16T11:54:04.770Z,58.85
2022-12-16T11:56:56.098Z,58.53
2022-12-16T12:00:05.073Z,55.15
2022-12-16T12:03:21.391Z,52.92
2022-12-16T12:06:36.880Z,49.72
2022-12-16T12:09:46.608Z,56.13
2022-12-16T12:12:54.540Z,59.50
2022-12-16T12:18:48.502Z,52.42
2022-12-16T12:21:43.921Z,58.63
2022-12-16T12:24:41.705Z,55.78
2022-12-16T12:27:50.357Z,56.15
2022-12-16T12:30:38.996Z,50.03
2022-12-16T12:33:52.142Z,51.40
2022-12-16T12:37:02.505Z,50.75
2022-12-16T12:39:53.423Z,50.72
2022-12-16T12:48:36.978Z,48.85
2022-12-16T12:51:45.566Z,44.42
2022-12-16T12:55:12.278Z,46.60
2022-12-16T12:57:59.781Z,48.13
2022-12-16T13:00:46.940Z,48.60
2022-12-16T13:03:45.495Z,48.03
2022-12-16T13:06:34.140Z,44.75
2022-12-16T13:09:20.824Z,46.35
2022-12-16T13:15:28.058Z,46.28
2022-12-16T13:21:05.254Z,48.83
2022-12-16T13:23:52.986Z,46.45
2022-12-16T13:26:40.855Z,48.00
2022-12-16T13:29:49.082Z,52.65
2022-12-16T13:32:41.753Z,47.80
2022-12-16T13:38:39.177Z,52.70
2022-12-16T13:41:27.276Z,49.30
2022-12-16T13:44:16.411Z,52.55
2022-12-16T13:47:12.455Z,51.17
2022-12-16T13:50:03.967Z,50.28
2022-12-16T13:53:17.938Z,52.55
2022-12-16T13:56:15.449Z,40.08
2022-12-16T13:59:05.529Z,39.63
2022-12-16T14:01:58.049Z,50.05
2022-12-16T14:04:47.587Z,38.75
2022-12-16T14:07:35.981Z,42.70
2022-12-16T14:10:23.020Z,49.60
2022-12-16T14:13:16.208Z,51.33
2022-12-16T14:16:32.020Z,48.53
2022-12-16T14:19:44.009Z,45.25
2022-12-16T14:23:07.959Z,48.13
2022-12-16T14:25:54.517Z,38.55
2022-12-16T14:28:56.483Z,40.53
2022-12-16T14:31:52.436Z,42.00
2022-12-16T14:34:42.574Z,43.83
2022-12-16T14:37:41.227Z,54.25
2022-12-16T14:40:45.468Z,51.85
2022-12-16T14:43:34.900Z,52.20
2022-12-16T14:46:21.562Z,55.83
2022-12-16T14:49:08.578Z,54.00
2022-12-16T14:51:57.200Z,54.88
2022-12-16T14:55:02.775Z,57.10
2022-12-16T14:57:50.845Z,57.10
2022-12-16T15:03:17.612Z,54.63
2022-12-16T15:06:04.524Z,50.00
2022-12-16T15:08:52.736Z,51.72
2022-12-16T15:11:40.328Z,50.65
2022-12-16T15:14:26.841Z,49.50
2022-12-16T15:17:13.458Z,50.65
2022-12-16T15:20:04.257Z,44.53
2022-12-16T15:22:51.134Z,45.80
2022-12-16T15:25:40.065Z,41.90
2022-12-16T15:28:56.469Z,43.50
2022-12-16T15:31:45.009Z,45.95
2022-12-16T15:34:48.488Z,46.60
2022-12-16T15:37:38.898Z,49.05
2022-12-16T15:40:38.147Z,47.67
2022-12-16T15:43:24.756Z,48.70
2022-12-16T15:46:11.598Z,41.75
2022-12-16T15:48:58.226Z,39.83
2022-12-16T15:51:59.135Z,36.13
2022-12-16T15:54:45.795Z,39.08
2022-12-16T15:57:53.240Z,41.35
2022-12-16T16:00:49.418Z,41.95
2022-12-16T16:03:48.904Z,37.30
2022-12-16T16:06:37.112Z,34.60
2022-12-16T16:09:45.176Z,34.15
2022-12-16T16:12:32.810Z,41.05
2022-12-16T16:15:19.562Z,37.53
2022-12-16T16:18:14.805Z,40.45
2022-12-16T16:21:01.453Z,42.42
2022-12-16T16:23:48.154Z,43.35
2022-12-16T16:26:36.364Z,44.60
2022-12-16T16:29:23.003Z,42.65
2022-12-16T16:32:09.561Z,43.45
2022-12-16T16:34:56.183Z,43.28
2022-12-16T16:37:42.701Z,39.70
2022-12-16T16:40:37.417Z,41.08
2022-12-16T16:43:24.037Z,42.50
2022-12-16T16:46:13.367Z,42.00
2022-12-16T16:49:00.303Z,39.33
2022-12-16T16:51:47.183Z,42.30
2022-12-16T16:54:33.764Z,45.67
2022-12-16T16:57:20.732Z,40.38
2022-12-16T17:00:07.423Z,43.40
2022-12-16T17:02:54.423Z,41.50
2022-12-16T17:05:41.048Z,36.83
2022-12-16T17:08:27.665Z,33.00
2022-12-16T17:11:14.268Z,34.03
2022-12-16T17:14:00.888Z,32.53
2022-12-16T17:16:47.439Z,32.38
2022-12-16T17:19:33.986Z,38.33
2022-12-16T17:22:20.597Z,36.95
2022-12-16T17:25:07.107Z,37.35
2022-12-16T17:27:53.725Z,37.95
2022-12-16T17:30:47.412Z,38.53
2022-12-16T17:33:35.935Z,39.08
2022-12-16T17:36:26.030Z,36.63
2022-12-16T17:39:15.125Z,40.95
2022-12-16T17:42:01.677Z,39.55
2022-12-16T17:44:48.271Z,34.42
2022-12-16T17:47:35.001Z,39.20
2022-12-16T17:50:21.576Z,41.90
2022-12-16T17:53:08.175Z,43.35
2022-12-16T17:55:54.748Z,40.47
2022-12-16T17:58:41.280Z,43.42
2022-12-16T18:01:27.905Z,39.75
2022-12-16T18:04:14.521Z,41.20
2022-12-16T18:07:01.083Z,39.80
2022-12-16T18:09:47.613Z,43.70
2022-12-16T18:12:34.128Z,40.95
2022-12-16T18:15:20.690Z,41.15
2022-12-16T18:18:09.038Z,39.25
2022-12-16T18:20:55.668Z,38.78
2022-12-16T18:23:42.201Z,36.80
2022-12-16T18:26:29.326Z,44.40
2022-12-16T18:29:16.196Z,43.13
2022-12-16T18:32:02.750Z,45.75
2022-12-16T18:34:49.355Z,41.95
2022-12-16T18:37:35.859Z,40.95
2022-12-16T18:40:22.405Z,42.70
2022-12-16T18:43:08.906Z,44.42
2022-12-16T18:45:55.497Z,38.83
2022-12-16T18:48:42.029Z,46.28
2022-12-16T18:51:28.567Z,38.80
2022-12-16T18:54:15.138Z,41.75
2022-12-16T18:57:01.704Z,45.50
2022-12-16T18:59:48.200Z,41.20
2022-12-16T19:02:34.853Z,40.05
2022-12-16T19:05:21.556Z,39.90
2022-12-16T19:08:13.968Z,41.22
2022-12-16T19:11:00.938Z,43.45
2022-12-16T19:13:47.533Z,43.20
2022-12-16T19:16:34.112Z,44.95
2022-12-16T19:19:20.828Z,44.72
2022-12-16T19:22:07.536Z,39.80
2022-12-16T19:24:54.929Z,41.53
2022-12-16T19:27:42.997Z,39.03
2022-12-16T19:30:29.907Z,39.15
2022-12-16T19:33:16.431Z,39.95
2022-12-16T19:36:02.987Z,39.67
2022-12-16T19:38:49.522Z,38.70
2022-12-16T19:41:36.809Z,42.15
2022-12-16T19:44:24.065Z,38.88
2022-12-16T19:47:10.630Z,36.67
2022-12-16T19:49:57.212Z,40.88
2022-12-16T19:52:44.537Z,37.10
2022-12-16T19:55:31.128Z,40.17
2022-12-16T19:58:17.903Z,38.50
2022-12-16T20:01:04.606Z,42.42
2022-12-16T20:03:52.371Z,40.38
2022-12-16T20:06:43.194Z,37.97
2022-12-16T20:09:29.863Z,37.13
2022-12-16T20:12:16.401Z,38.15
2022-12-16T20:15:02.942Z,39.80
2022-12-16T20:17:49.470Z,35.67
2022-12-16T20:20:36.085Z,38.53
2022-12-16T20:23:22.712Z,38.03
2022-12-16T20:26:16.910Z,36.03
2022-12-16T20:29:03.469Z,37.85
2022-12-16T20:31:50.224Z,37.60
2022-12-16T20:34:36.773Z,36.50
2022-12-16T20:37:23.347Z,37.28
2022-12-16T20:40:09.872Z,38.88
2022-12-16T20:42:56.454Z,41.53
2022-12-16T20:45:43.021Z,47.55
2022-12-16T20:48:34.160Z,40.13
2022-12-16T20:54:30.315Z,33.88
2022-12-16T20:57:16.855Z,37.20
2022-12-16T21:00:03.558Z,39.05
2022-12-16T21:02:50.167Z,39.08
2022-12-16T21:05:36.733Z,31.92
2022-12-16T21:08:23.343Z,34.58
2022-12-16T21:11:09.921Z,31.95
2022-12-16T21:13:56.749Z,37.50
2022-12-16T21:16:43.288Z,37.38
2022-12-16T21:19:33.527Z,31.05
2022-12-16T21:22:20.678Z,31.65
2022-12-16T21:25:07.238Z,30.80
2022-12-16T21:27:53.829Z,32.83
2022-12-16T21:30:42.027Z,31.23
2022-12-16T21:33:36.383Z,30.70
2022-12-16T21:36:23.144Z,31.60
2022-12-16T21:39:09.745Z,32.42
2022-12-16T21:41:56.365Z,31.77
2022-12-16T21:44:42.907Z,30.58
2022-12-16T21:47:29.452Z,30.25
2022-12-16T21:50:16.030Z,32.08
2022-12-16T21:53:02.603Z,30.70
2022-12-16T21:55:49.158Z,35.65
2022-12-16T21:58:35.689Z,34.95
2022-12-16T22:01:22.351Z,36.40
2022-12-16T22:04:08.978Z,35.97
2022-12-16T22:06:56.146Z,32.40
2022-12-16T22:09:42.835Z,33.40
2022-12-16T22:12:29.356Z,35.17
2022-12-16T22:15:15.947Z,29.63
2022-12-16T22:18:02.489Z,32.70
2022-12-16T22:20:48.995Z,32.33
2022-12-16T22:23:35.569Z,32.40
2022-12-16T22:26:22.106Z,34.42
2022-12-16T22:29:11.231Z,31.67
2022-12-16T22:31:57.721Z,34.55
2022-12-16T22:34:44.285Z,31.15
2022-12-16T22:37:30.825Z,33.30
2022-12-16T22:40:17.353Z,28.67
2022-12-16T22:43:03.919Z,27.25
2022-12-16T22:45:50.502Z,32.28
2022-12-16T22:48:37.081Z,28.50
2022-12-16T22:51:23.690Z,30.90
2022-12-16T22:54:10.249Z,29.73
2022-12-16T22:56:56.819Z,28.80
2022-12-16T22:59:43.424Z,28.50
2022-12-16T23:02:30.133Z,26.15
2022-12-16T23:05:25.358Z,26.83
2022-12-16T23:08:14.077Z,29.15
2022-12-16T23:11:01.037Z,27.17
2022-12-16T23:13:47.687Z,27.48
2022-12-16T23:16:34.299Z,31.20
2022-12-16T23:19:21.075Z,31.00
2022-12-16T23:22:08.128Z,30.90
2022-12-16T23:24:54.684Z,29.55
2022-12-16T23:27:41.294Z,30.27
2022-12-16T23:30:28.458Z,28.95
2022-12-16T23:33:19.910Z,27.90
2022-12-16T23:36:06.704Z,26.42
2022-12-16T23:38:53.441Z,26.23
2022-12-16T23:41:40.065Z,23.67
2022-12-16T23:44:26.584Z,27.27
2022-12-16T23:47:13.183Z,24.73
2022-12-16T23:49:59.744Z,26.25
2022-12-16T23:52:46.297Z,26.20
2022-12-16T23:55:32.813Z,28.45
2022-12-16T23:58:21.304Z,22.90
